sensor_id;sensor_type;location;lat;lon;timestamp;P1;durP1;ratioP1;P2;durP2;ratioP2
59728;SDS011;45588;51.598;5.618;2023-01-28T00:00:28;28.20;;;12.80;;
59728;SDS011;45588;51.598;5.618;2023-01-28T00:02:54;24.88;;;12.68;;
59728;SDS011;45588;51.598;5.618;2023-01-28T00:05:19;27.52;;;16.58;;
59728;SDS011;45588;51.598;5.618;2023-01-28T00:07:44;22.23;;;10.82;;
59728;SDS011;45588;51.598;5.618;2023-01-28T00:10:13;21.20;;;11.75;;
59728;SDS011;45588;51.598;5.618;2023-01-28T00:12:38;28.70;;;25.00;;
59728;SDS011;45588;51.598;5.618;2023-01-28T00:15:03;27.35;;;24.48;;
59728;SDS011;45588;51.598;5.618;2023-01-28T00:17:28;28.05;;;24.85;;
59728;SDS011;45588;51.598;5.618;2023-01-28T00:19:54;24.58;;;15.40;;
59728;SDS011;45588;51.598;5.618;2023-01-28T00:22:19;23.33;;;14.45;;
59728;SDS011;45588;51.598;5.618;2023-01-28T00:24:45;26.63;;;15.98;;
59728;SDS011;45588;51.598;5.618;2023-01-28T00:27:10;24.92;;;15.80;;
59728;SDS011;45588;51.598;5.618;2023-01-28T00:29:36;25.90;;;17.17;;
59728;SDS011;45588;51.598;5.618;2023-01-28T00:32:02;26.42;;;17.15;;
59728;SDS011;45588;51.598;5.618;2023-01-28T00:34:27;24.85;;;15.00;;
59728;SDS011;45588;51.598;5.618;2023-01-28T00:36:53;23.77;;;15.60;;
59728;SDS011;45588;51.598;5.618;2023-01-28T00:39:24;24.30;;;13.07;;
59728;SDS011;45588;51.598;5.618;2023-01-28T00:41:50;24.17;;;15.73;;
59728;SDS011;45588;51.598;5.618;2023-01-28T00:44:15;25.52;;;15.20;;
59728;SDS011;45588;51.598;5.618;2023-01-28T00:46:40;30.02;;;23.42;;
59728;SDS011;45588;51.598;5.618;2023-01-28T00:49:06;28.77;;;16.55;;
59728;SDS011;45588;51.598;5.618;2023-01-28T00:51:31;26.73;;;16.13;;
59728;SDS011;45588;51.598;5.618;2023-01-28T00:53:56;26.67;;;16.90;;
59728;SDS011;45588;51.598;5.618;2023-01-28T00:56:22;24.15;;;13.20;;
59728;SDS011;45588;51.598;5.618;2023-01-28T00:58:47;25.27;;;16.83;;
59728;SDS011;45588;51.598;5.618;2023-01-28T01:01:14;28.90;;;25.88;;
59728;SDS011;45588;51.598;5.618;2023-01-28T01:03:39;26.98;;;16.90;;
59728;SDS011;45588;51.598;5.618;2023-01-28T01:06:05;22.65;;;12.18;;
59728;SDS011;45588;51.598;5.618;2023-01-28T01:08:31;21.58;;;10.90;;
59728;SDS011;45588;51.598;5.618;2023-01-28T01:11:03;23.63;;;10.82;;
59728;SDS011;45588;51.598;5.618;2023-01-28T01:13:28;24.15;;;13.98;;
59728;SDS011;45588;51.598;5.618;2023-01-28T01:16:01;23.73;;;12.98;;
59728;SDS011;45588;51.598;5.618;2023-01-28T01:18:27;28.67;;;25.52;;
59728;SDS011;45588;51.598;5.618;2023-01-28T01:20:52;29.08;;;14.82;;
59728;SDS011;45588;51.598;5.618;2023-01-28T01:23:22;23.90;;;13.32;;
59728;SDS011;45588;51.598;5.618;2023-01-28T01:25:48;26.85;;;14.07;;
59728;SDS011;45588;51.598;5.618;2023-01-28T01:28:14;25.83;;;13.40;;
59728;SDS011;45588;51.598;5.618;2023-01-28T01:30:39;29.83;;;26.58;;
59728;SDS011;45588;51.598;5.618;2023-01-28T01:33:04;28.83;;;15.95;;
59728;SDS011;45588;51.598;5.618;2023-01-28T01:35:30;32.03;;;27.00;;
59728;SDS011;45588;51.598;5.618;2023-01-28T01:37:55;24.90;;;13.45;;
59728;SDS011;45588;51.598;5.618;2023-01-28T01:40:20;32.03;;;27.45;;
59728;SDS011;45588;51.598;5.618;2023-01-28T01:42:45;27.70;;;15.02;;
59728;SDS011;45588;51.598;5.618;2023-01-28T01:45:14;26.65;;;14.23;;
59728;SDS011;45588;51.598;5.618;2023-01-28T01:52:38;31.63;;;19.85;;
59728;SDS011;45588;51.598;5.618;2023-01-28T01:55:05;32.67;;;19.17;;
59728;SDS011;45588;51.598;5.618;2023-01-28T01:57:33;31.58;;;17.55;;
59728;SDS011;45588;51.598;5.618;2023-01-28T02:00:00;31.13;;;18.05;;
59728;SDS011;45588;51.598;5.618;2023-01-28T02:02:38;27.42;;;16.00;;
59728;SDS011;45588;51.598;5.618;2023-01-28T02:05:05;32.75;;;27.77;;
59728;SDS011;45588;51.598;5.618;2023-01-28T02:07:30;28.83;;;17.10;;
59728;SDS011;45588;51.598;5.618;2023-01-28T02:09:56;31.98;;;28.55;;
59728;SDS011;45588;51.598;5.618;2023-01-28T02:12:26;28.52;;;17.73;;
59728;SDS011;45588;51.598;5.618;2023-01-28T02:15:26;27.83;;;17.10;;
59728;SDS011;45588;51.598;5.618;2023-01-28T02:17:44;26.02;;;13.10;;
59728;SDS011;45588;51.598;5.618;2023-01-28T02:20:11;27.33;;;14.07;;
59728;SDS011;45588;51.598;5.618;2023-01-28T02:25:09;26.90;;;14.27;;
59728;SDS011;45588;51.598;5.618;2023-01-28T02:30:26;23.70;;;12.77;;
59728;SDS011;45588;51.598;5.618;2023-01-28T02:32:54;30.75;;;15.30;;
59728;SDS011;45588;51.598;5.618;2023-01-28T02:37:52;29.92;;;25.83;;
59728;SDS011;45588;51.598;5.618;2023-01-28T02:40:27;26.10;;;14.90;;
59728;SDS011;45588;51.598;5.618;2023-01-28T02:42:54;26.27;;;15.07;;
59728;SDS011;45588;51.598;5.618;2023-01-28T02:45:26;28.42;;;15.38;;
59728;SDS011;45588;51.598;5.618;2023-01-28T02:48:11;23.67;;;13.70;;
59728;SDS011;45588;51.598;5.618;2023-01-28T02:53:56;22.58;;;12.20;;
59728;SDS011;45588;51.598;5.618;2023-01-28T02:57:06;21.38;;;12.07;;
59728;SDS011;45588;51.598;5.618;2023-01-28T02:59:18;16.13;;;10.07;;
59728;SDS011;45588;51.598;5.618;2023-01-28T03:05:13;22.50;;;12.07;;
59728;SDS011;45588;51.598;5.618;2023-01-28T03:07:30;22.05;;;10.63;;
59728;SDS011;45588;51.598;5.618;2023-01-28T03:09:56;21.77;;;11.30;;
59728;SDS011;45588;51.598;5.618;2023-01-28T03:12:23;21.88;;;9.68;;
59728;SDS011;45588;51.598;5.618;2023-01-28T03:15:28;21.35;;;10.48;;
59728;SDS011;45588;51.598;5.618;2023-01-28T03:18:16;21.20;;;10.75;;
59728;SDS011;45588;51.598;5.618;2023-01-28T03:21:05;23.60;;;12.38;;
59728;SDS011;45588;51.598;5.618;2023-01-28T03:26:34;25.63;;;21.65;;
59728;SDS011;45588;51.598;5.618;2023-01-28T03:29:20;21.58;;;14.95;;
59728;SDS011;45588;51.598;5.618;2023-01-28T03:32:06;23.17;;;10.93;;
59728;SDS011;45588;51.598;5.618;2023-01-28T03:34:50;19.35;;;10.40;;
59728;SDS011;45588;51.598;5.618;2023-01-28T03:37:34;20.67;;;10.30;;
59728;SDS011;45588;51.598;5.618;2023-01-28T03:40:00;18.13;;;10.20;;
59728;SDS011;45588;51.598;5.618;2023-01-28T03:42:25;19.90;;;11.18;;
59728;SDS011;45588;51.598;5.618;2023-01-28T03:44:51;20.98;;;9.95;;
59728;SDS011;45588;51.598;5.618;2023-01-28T03:47:17;17.38;;;9.90;;
59728;SDS011;45588;51.598;5.618;2023-01-28T03:49:43;19.10;;;9.38;;
59728;SDS011;45588;51.598;5.618;2023-01-28T03:52:15;17.60;;;9.60;;
59728;SDS011;45588;51.598;5.618;2023-01-28T03:54:42;19.73;;;12.18;;
59728;SDS011;45588;51.598;5.618;2023-01-28T03:57:08;25.02;;;22.23;;
59728;SDS011;45588;51.598;5.618;2023-01-28T03:59:33;22.10;;;13.60;;
59728;SDS011;45588;51.598;5.618;2023-01-28T04:01:59;26.42;;;23.63;;
59728;SDS011;45588;51.598;5.618;2023-01-28T04:04:24;22.05;;;13.82;;
59728;SDS011;45588;51.598;5.618;2023-01-28T04:06:53;22.05;;;13.10;;
59728;SDS011;45588;51.598;5.618;2023-01-28T04:09:19;22.75;;;12.93;;
59728;SDS011;45588;51.598;5.618;2023-01-28T04:11:45;20.15;;;10.95;;
59728;SDS011;45588;51.598;5.618;2023-01-28T04:14:10;20.33;;;11.77;;
59728;SDS011;45588;51.598;5.618;2023-01-28T04:16:36;21.85;;;11.48;;
59728;SDS011;45588;51.598;5.618;2023-01-28T04:19:01;28.80;;;24.23;;
59728;SDS011;45588;51.598;5.618;2023-01-28T04:21:26;22.90;;;11.38;;
59728;SDS011;45588;51.598;5.618;2023-01-28T04:23:51;27.42;;;12.65;;
59728;SDS011;45588;51.598;5.618;2023-01-28T04:26:16;21.15;;;11.70;;
59728;SDS011;45588;51.598;5.618;2023-01-28T04:28:42;21.83;;;13.07;;
59728;SDS011;45588;51.598;5.618;2023-01-28T04:31:07;23.98;;;13.45;;
59728;SDS011;45588;51.598;5.618;2023-01-28T04:33:32;21.63;;;12.70;;
59728;SDS011;45588;51.598;5.618;2023-01-28T04:35:57;24.33;;;12.80;;
59728;SDS011;45588;51.598;5.618;2023-01-28T04:38:23;27.50;;;24.27;;
59728;SDS011;45588;51.598;5.618;2023-01-28T04:40:48;29.23;;;25.08;;
59728;SDS011;45588;51.598;5.618;2023-01-28T04:43:14;24.67;;;11.70;;
59728;SDS011;45588;51.598;5.618;2023-01-28T04:45:39;23.85;;;12.52;;
59728;SDS011;45588;51.598;5.618;2023-01-28T04:48:04;24.75;;;14.80;;
59728;SDS011;45588;51.598;5.618;2023-01-28T04:50:29;23.23;;;12.57;;
59728;SDS011;45588;51.598;5.618;2023-01-28T04:52:55;20.75;;;11.25;;
59728;SDS011;45588;51.598;5.618;2023-01-28T04:55:20;21.25;;;12.27;;
59728;SDS011;45588;51.598;5.618;2023-01-28T04:57:45;25.57;;;13.40;;
59728;SDS011;45588;51.598;5.618;2023-01-28T05:00:12;21.92;;;11.32;;
59728;SDS011;45588;51.598;5.618;2023-01-28T05:02:37;24.17;;;13.23;;
59728;SDS011;45588;51.598;5.618;2023-01-28T05:05:02;21.25;;;11.25;;
59728;SDS011;45588;51.598;5.618;2023-01-28T05:07:30;24.25;;;12.88;;
59728;SDS011;45588;51.598;5.618;2023-01-28T05:09:58;25.65;;;12.05;;
59728;SDS011;45588;51.598;5.618;2023-01-28T05:12:23;21.23;;;11.55;;
59728;SDS011;45588;51.598;5.618;2023-01-28T05:14:48;25.15;;;14.07;;
59728;SDS011;45588;51.598;5.618;2023-01-28T05:17:13;22.15;;;11.45;;
59728;SDS011;45588;51.598;5.618;2023-01-28T05:19:39;19.10;;;11.15;;
59728;SDS011;45588;51.598;5.618;2023-01-28T05:22:04;25.05;;;22.33;;
59728;SDS011;45588;51.598;5.618;2023-01-28T05:24:29;21.13;;;11.20;;
59728;SDS011;45588;51.598;5.618;2023-01-28T05:26:54;20.55;;;11.73;;
59728;SDS011;45588;51.598;5.618;2023-01-28T05:29:19;26.90;;;21.80;;
59728;SDS011;45588;51.598;5.618;2023-01-28T05:31:46;18.75;;;11.18;;
59728;SDS011;45588;51.598;5.618;2023-01-28T05:34:11;18.10;;;11.05;;
59728;SDS011;45588;51.598;5.618;2023-01-28T05:36:36;20.10;;;10.55;;
59728;SDS011;45588;51.598;5.618;2023-01-28T05:39:02;23.92;;;21.33;;
59728;SDS011;45588;51.598;5.618;2023-01-28T05:41:27;24.92;;;11.13;;
59728;SDS011;45588;51.598;5.618;2023-01-28T05:43:52;18.83;;;10.38;;
59728;SDS011;45588;51.598;5.618;2023-01-28T05:46:17;22.42;;;20.08;;
59728;SDS011;45588;51.598;5.618;2023-01-28T05:48:42;19.45;;;12.50;;
59728;SDS011;45588;51.598;5.618;2023-01-28T05:51:08;21.00;;;12.43;;
59728;SDS011;45588;51.598;5.618;2023-01-28T05:53:33;23.90;;;21.45;;
59728;SDS011;45588;51.598;5.618;2023-01-28T05:55:58;19.30;;;10.52;;
59728;SDS011;45588;51.598;5.618;2023-01-28T05:58:23;18.42;;;11.07;;
59728;SDS011;45588;51.598;5.618;2023-01-28T06:00:48;18.90;;;12.25;;
59728;SDS011;45588;51.598;5.618;2023-01-28T06:03:14;23.40;;;11.52;;
59728;SDS011;45588;51.598;5.618;2023-01-28T06:05:39;19.10;;;11.85;;
59728;SDS011;45588;51.598;5.618;2023-01-28T06:08:04;19.08;;;10.95;;
59728;SDS011;45588;51.598;5.618;2023-01-28T06:10:30;17.58;;;9.48;;
59728;SDS011;45588;51.598;5.618;2023-01-28T06:12:55;18.00;;;10.50;;
59728;SDS011;45588;51.598;5.618;2023-01-28T06:15:20;18.48;;;10.75;;
59728;SDS011;45588;51.598;5.618;2023-01-28T06:17:45;19.27;;;10.60;;
59728;SDS011;45588;51.598;5.618;2023-01-28T06:20:11;18.70;;;11.35;;
59728;SDS011;45588;51.598;5.618;2023-01-28T06:22:36;23.48;;;20.92;;
59728;SDS011;45588;51.598;5.618;2023-01-28T06:25:01;20.27;;;10.57;;
59728;SDS011;45588;51.598;5.618;2023-01-28T06:27:27;20.17;;;9.75;;
59728;SDS011;45588;51.598;5.618;2023-01-28T06:29:52;19.80;;;12.40;;
59728;SDS011;45588;51.598;5.618;2023-01-28T06:32:17;23.40;;;20.60;;
59728;SDS011;45588;51.598;5.618;2023-01-28T06:34:42;22.13;;;13.48;;
59728;SDS011;45588;51.598;5.618;2023-01-28T06:37:07;19.98;;;12.38;;
59728;SDS011;45588;51.598;5.618;2023-01-28T06:39:33;22.30;;;19.90;;
59728;SDS011;45588;51.598;5.618;2023-01-28T06:41:58;19.80;;;11.95;;
59728;SDS011;45588;51.598;5.618;2023-01-28T06:44:23;17.40;;;10.88;;
59728;SDS011;45588;51.598;5.618;2023-01-28T06:46:48;18.73;;;9.68;;
59728;SDS011;45588;51.598;5.618;2023-01-28T06:49:14;19.33;;;10.10;;
59728;SDS011;45588;51.598;5.618;2023-01-28T06:51:39;21.52;;;10.15;;
59728;SDS011;45588;51.598;5.618;2023-01-28T06:54:04;20.40;;;11.20;;
59728;SDS011;45588;51.598;5.618;2023-01-28T06:56:29;22.15;;;10.02;;
59728;SDS011;45588;51.598;5.618;2023-01-28T06:58:54;21.63;;;11.48;;
59728;SDS011;45588;51.598;5.618;2023-01-28T07:01:19;18.67;;;10.07;;
59728;SDS011;45588;51.598;5.618;2023-01-28T07:03:45;17.83;;;11.45;;
59728;SDS011;45588;51.598;5.618;2023-01-28T07:06:10;24.50;;;14.32;;
59728;SDS011;45588;51.598;5.618;2023-01-28T07:08:35;22.63;;;11.80;;
59728;SDS011;45588;51.598;5.618;2023-01-28T07:11:02;18.67;;;10.20;;
59728;SDS011;45588;51.598;5.618;2023-01-28T07:13:31;19.90;;;11.10;;
59728;SDS011;45588;51.598;5.618;2023-01-28T07:15:56;18.65;;;10.50;;
59728;SDS011;45588;51.598;5.618;2023-01-28T07:18:21;20.00;;;11.85;;
59728;SDS011;45588;51.598;5.618;2023-01-28T07:20:46;23.42;;;12.23;;
59728;SDS011;45588;51.598;5.618;2023-01-28T07:23:12;19.63;;;10.85;;
59728;SDS011;45588;51.598;5.618;2023-01-28T07:25:37;23.35;;;13.52;;
59728;SDS011;45588;51.598;5.618;2023-01-28T07:28:02;23.42;;;13.15;;
59728;SDS011;45588;51.598;5.618;2023-01-28T07:30:27;22.50;;;12.63;;
59728;SDS011;45588;51.598;5.618;2023-01-28T07:32:53;22.85;;;12.38;;
59728;SDS011;45588;51.598;5.618;2023-01-28T07:35:21;26.70;;;23.48;;
59728;SDS011;45588;51.598;5.618;2023-01-28T07:37:51;25.85;;;13.80;;
59728;SDS011;45588;51.598;5.618;2023-01-28T07:40:16;28.20;;;22.58;;
59728;SDS011;45588;51.598;5.618;2023-01-28T07:42:41;25.85;;;22.63;;
59728;SDS011;45588;51.598;5.618;2023-01-28T07:45:06;18.52;;;9.45;;
59728;SDS011;45588;51.598;5.618;2023-01-28T07:47:32;20.08;;;11.65;;
59728;SDS011;45588;51.598;5.618;2023-01-28T07:49:57;22.17;;;12.38;;
59728;SDS011;45588;51.598;5.618;2023-01-28T07:52:22;21.63;;;11.30;;
59728;SDS011;45588;51.598;5.618;2023-01-28T07:54:47;25.95;;;21.98;;
59728;SDS011;45588;51.598;5.618;2023-01-28T07:57:13;18.35;;;9.73;;
59728;SDS011;45588;51.598;5.618;2023-01-28T07:59:38;19.60;;;11.05;;
59728;SDS011;45588;51.598;5.618;2023-01-28T08:02:03;22.88;;;12.60;;
59728;SDS011;45588;51.598;5.618;2023-01-28T08:04:28;22.88;;;12.05;;
59728;SDS011;45588;51.598;5.618;2023-01-28T08:06:54;18.92;;;10.43;;
59728;SDS011;45588;51.598;5.618;2023-01-28T08:09:19;19.73;;;10.73;;
59728;SDS011;45588;51.598;5.618;2023-01-28T08:11:44;20.35;;;11.38;;
59728;SDS011;45588;51.598;5.618;2023-01-28T08:14:10;20.35;;;11.60;;
59728;SDS011;45588;51.598;5.618;2023-01-28T08:16:35;21.27;;;11.50;;
59728;SDS011;45588;51.598;5.618;2023-01-28T08:19:00;20.98;;;11.02;;
59728;SDS011;45588;51.598;5.618;2023-01-28T08:21:26;25.27;;;21.63;;
59728;SDS011;45588;51.598;5.618;2023-01-28T08:23:51;19.02;;;10.57;;
59728;SDS011;45588;51.598;5.618;2023-01-28T08:26:17;25.58;;;22.08;;
59728;SDS011;45588;51.598;5.618;2023-01-28T08:28:42;20.95;;;11.75;;
59728;SDS011;45588;51.598;5.618;2023-01-28T08:31:07;22.45;;;13.00;;
59728;SDS011;45588;51.598;5.618;2023-01-28T08:33:32;23.75;;;12.23;;
59728;SDS011;45588;51.598;5.618;2023-01-28T08:35:57;20.75;;;11.98;;
59728;SDS011;45588;51.598;5.618;2023-01-28T08:38:26;24.05;;;14.18;;
59728;SDS011;45588;51.598;5.618;2023-01-28T08:40:51;18.58;;;10.23;;
59728;SDS011;45588;51.598;5.618;2023-01-28T08:43:19;22.48;;;12.98;;
59728;SDS011;45588;51.598;5.618;2023-01-28T08:45:44;19.92;;;11.52;;
59728;SDS011;45588;51.598;5.618;2023-01-28T08:48:10;23.95;;;14.27;;
59728;SDS011;45588;51.598;5.618;2023-01-28T08:50:36;22.05;;;11.35;;
59728;SDS011;45588;51.598;5.618;2023-01-28T08:53:03;25.00;;;22.30;;
59728;SDS011;45588;51.598;5.618;2023-01-28T08:55:29;21.40;;;12.18;;
59728;SDS011;45588;51.598;5.618;2023-01-28T08:57:54;22.63;;;12.57;;
59728;SDS011;45588;51.598;5.618;2023-01-28T09:00:20;23.80;;;14.10;;
59728;SDS011;45588;51.598;5.618;2023-01-28T09:02:45;24.77;;;14.15;;
59728;SDS011;45588;51.598;5.618;2023-01-28T09:05:10;27.02;;;17.42;;
59728;SDS011;45588;51.598;5.618;2023-01-28T09:07:36;25.05;;;15.13;;
59728;SDS011;45588;51.598;5.618;2023-01-28T09:10:02;27.83;;;18.10;;
59728;SDS011;45588;51.598;5.618;2023-01-28T09:12:27;25.60;;;14.20;;
59728;SDS011;45588;51.598;5.618;2023-01-28T09:14:52;26.13;;;14.48;;
59728;SDS011;45588;51.598;5.618;2023-01-28T09:17:18;27.00;;;13.38;;
59728;SDS011;45588;51.598;5.618;2023-01-28T09:19:43;29.83;;;26.63;;
59728;SDS011;45588;51.598;5.618;2023-01-28T09:22:08;26.50;;;15.52;;
59728;SDS011;45588;51.598;5.618;2023-01-28T09:24:33;28.75;;;13.80;;
59728;SDS011;45588;51.598;5.618;2023-01-28T09:26:58;25.40;;;14.98;;
59728;SDS011;45588;51.598;5.618;2023-01-28T09:29:24;29.08;;;13.30;;
59728;SDS011;45588;51.598;5.618;2023-01-28T09:31:49;29.15;;;26.00;;
59728;SDS011;45588;51.598;5.618;2023-01-28T09:34:14;27.05;;;16.52;;
59728;SDS011;45588;51.598;5.618;2023-01-28T09:36:40;23.17;;;13.85;;
59728;SDS011;45588;51.598;5.618;2023-01-28T09:39:05;28.45;;;18.23;;
59728;SDS011;45588;51.598;5.618;2023-01-28T09:41:37;28.50;;;16.08;;
59728;SDS011;45588;51.598;5.618;2023-01-28T09:46:46;24.60;;;13.63;;
59728;SDS011;45588;51.598;5.618;2023-01-28T09:49:19;27.15;;;24.05;;
59728;SDS011;45588;51.598;5.618;2023-01-28T09:51:48;22.42;;;10.85;;
59728;SDS011;45588;51.598;5.618;2023-01-28T09:56:42;31.50;;;18.10;;
59728;SDS011;45588;51.598;5.618;2023-01-28T09:59:28;27.65;;;16.30;;
59728;SDS011;45588;51.598;5.618;2023-01-28T10:01:58;25.45;;;14.07;;
59728;SDS011;45588;51.598;5.618;2023-01-28T10:17:26;29.67;;;26.30;;
59728;SDS011;45588;51.598;5.618;2023-01-28T10:19:53;29.55;;;19.10;;
59728;SDS011;45588;51.598;5.618;2023-01-28T10:22:22;32.75;;;20.67;;
59728;SDS011;45588;51.598;5.618;2023-01-28T10:24:54;31.40;;;17.20;;
59728;SDS011;45588;51.598;5.618;2023-01-28T10:27:23;27.95;;;17.30;;
59728;SDS011;45588;51.598;5.618;2023-01-28T10:29:48;28.83;;;16.95;;
59728;SDS011;45588;51.598;5.618;2023-01-28T10:32:30;30.40;;;18.85;;
59728;SDS011;45588;51.598;5.618;2023-01-28T10:34:56;27.02;;;18.05;;
59728;SDS011;45588;51.598;5.618;2023-01-28T10:37:23;28.67;;;19.27;;
59728;SDS011;45588;51.598;5.618;2023-01-28T10:39:49;30.08;;;16.67;;
59728;SDS011;45588;51.598;5.618;2023-01-28T10:44:42;26.40;;;17.67;;
59728;SDS011;45588;51.598;5.618;2023-01-28T10:47:19;20.17;;;12.13;;
59728;SDS011;45588;51.598;5.618;2023-01-28T10:49:48;24.05;;;16.40;;
59728;SDS011;45588;51.598;5.618;2023-01-28T10:52:15;28.42;;;19.17;;
59728;SDS011;45588;51.598;5.618;2023-01-28T10:54:40;24.30;;;15.63;;
59728;SDS011;45588;51.598;5.618;2023-01-28T10:57:09;25.45;;;14.80;;
59728;SDS011;45588;51.598;5.618;2023-01-28T10:59:36;27.07;;;16.70;;
59728;SDS011;45588;51.598;5.618;2023-01-28T11:02:27;26.80;;;15.00;;
59728;SDS011;45588;51.598;5.618;2023-01-28T11:05:13;27.10;;;17.00;;
59728;SDS011;45588;51.598;5.618;2023-01-28T11:07:40;28.17;;;16.63;;
59728;SDS011;45588;51.598;5.618;2023-01-28T11:12:59;27.23;;;18.40;;
59728;SDS011;45588;51.598;5.618;2023-01-28T11:15:25;24.02;;;15.50;;
59728;SDS011;45588;51.598;5.618;2023-01-28T11:17:54;25.00;;;15.20;;
59728;SDS011;45588;51.598;5.618;2023-01-28T11:20:21;23.95;;;13.82;;
59728;SDS011;45588;51.598;5.618;2023-01-28T11:22:47;24.60;;;14.35;;
59728;SDS011;45588;51.598;5.618;2023-01-28T11:25:27;22.60;;;12.05;;
59728;SDS011;45588;51.598;5.618;2023-01-28T11:27:53;19.63;;;11.38;;
59728;SDS011;45588;51.598;5.618;2023-01-28T11:30:22;17.98;;;9.75;;
59728;SDS011;45588;51.598;5.618;2023-01-28T11:35:32;15.73;;;9.35;;
59728;SDS011;45588;51.598;5.618;2023-01-28T11:37:58;17.23;;;10.30;;
59728;SDS011;45588;51.598;5.618;2023-01-28T11:40:23;19.02;;;10.75;;
59728;SDS011;45588;51.598;5.618;2023-01-28T11:42:48;18.35;;;11.63;;
59728;SDS011;45588;51.598;5.618;2023-01-28T11:45:15;18.67;;;9.30;;
59728;SDS011;45588;51.598;5.618;2023-01-28T11:48:03;19.25;;;13.57;;
59728;SDS011;45588;51.598;5.618;2023-01-28T11:50:31;14.95;;;9.60;;
59728;SDS011;45588;51.598;5.618;2023-01-28T11:55:44;16.10;;;9.73;;
59728;SDS011;45588;51.598;5.618;2023-01-28T12:00:57;16.65;;;8.63;;
59728;SDS011;45588;51.598;5.618;2023-01-28T12:03:33;18.05;;;8.40;;
59728;SDS011;45588;51.598;5.618;2023-01-28T12:08:48;14.55;;;7.85;;
59728;SDS011;45588;51.598;5.618;2023-01-28T12:16:49;14.75;;;9.13;;
59728;SDS011;45588;51.598;5.618;2023-01-28T12:26:41;16.38;;;9.75;;
59728;SDS011;45588;51.598;5.618;2023-01-28T12:29:16;18.02;;;10.52;;
59728;SDS011;45588;51.598;5.618;2023-01-28T12:31:46;16.35;;;9.13;;
59728;SDS011;45588;51.598;5.618;2023-01-28T12:37:32;15.80;;;9.35;;
59728;SDS011;45588;51.598;5.618;2023-01-28T12:42:25;19.67;;;10.65;;
59728;SDS011;45588;51.598;5.618;2023-01-28T12:44:55;19.42;;;17.48;;
59728;SDS011;45588;51.598;5.618;2023-01-28T12:47:25;16.02;;;8.85;;
59728;SDS011;45588;51.598;5.618;2023-01-28T12:49:52;17.02;;;8.75;;
59728;SDS011;45588;51.598;5.618;2023-01-28T12:52:20;16.83;;;9.57;;
59728;SDS011;45588;51.598;5.618;2023-01-28T12:54:52;17.35;;;10.23;;
59728;SDS011;45588;51.598;5.618;2023-01-28T12:57:23;20.10;;;10.25;;
59728;SDS011;45588;51.598;5.618;2023-01-28T12:59:50;16.50;;;9.15;;
59728;SDS011;45588;51.598;5.618;2023-01-28T13:02:27;19.67;;;17.52;;
59728;SDS011;45588;51.598;5.618;2023-01-28T13:10:03;18.03;;;9.80;;
59728;SDS011;45588;51.598;5.618;2023-01-28T13:12:29;16.40;;;9.30;;
59728;SDS011;45588;51.598;5.618;2023-01-28T13:14:55;16.83;;;11.18;;
59728;SDS011;45588;51.598;5.618;2023-01-28T13:17:28;13.80;;;7.85;;
59728;SDS011;45588;51.598;5.618;2023-01-28T13:19:53;13.07;;;8.15;;
59728;SDS011;45588;51.598;5.618;2023-01-28T13:24:50;14.60;;;8.13;;
59728;SDS011;45588;51.598;5.618;2023-01-28T13:27:20;15.90;;;9.05;;
59728;SDS011;45588;51.598;5.618;2023-01-28T13:29:46;14.60;;;9.05;;
59728;SDS011;45588;51.598;5.618;2023-01-28T13:32:29;13.75;;;8.98;;
59728;SDS011;45588;51.598;5.618;2023-01-28T13:35:02;14.20;;;9.02;;
59728;SDS011;45588;51.598;5.618;2023-01-28T13:37:29;14.65;;;8.38;;
59728;SDS011;45588;51.598;5.618;2023-01-28T13:40:03;16.58;;;8.30;;
59728;SDS011;45588;51.598;5.618;2023-01-28T13:42:30;13.57;;;8.48;;
59728;SDS011;45588;51.598;5.618;2023-01-28T13:44:56;16.48;;;8.48;;
59728;SDS011;45588;51.598;5.618;2023-01-28T13:47:32;15.10;;;9.02;;
59728;SDS011;45588;51.598;5.618;2023-01-28T13:50:01;14.90;;;8.35;;
59728;SDS011;45588;51.598;5.618;2023-01-28T13:52:35;16.60;;;8.98;;
59728;SDS011;45588;51.598;5.618;2023-01-28T13:55:03;15.00;;;9.07;;
59728;SDS011;45588;51.598;5.618;2023-01-28T14:00:17;15.98;;;9.38;;
59728;SDS011;45588;51.598;5.618;2023-01-28T14:16:29;17.35;;;10.25;;
59728;SDS011;45588;51.598;5.618;2023-01-28T14:18:58;21.02;;;18.80;;
59728;SDS011;45588;51.598;5.618;2023-01-28T14:21:24;17.67;;;9.68;;
59728;SDS011;45588;51.598;5.618;2023-01-28T14:23:52;15.88;;;9.63;;
59728;SDS011;45588;51.598;5.618;2023-01-28T14:31:25;19.25;;;10.15;;
59728;SDS011;45588;51.598;5.618;2023-01-28T14:33:51;18.58;;;9.95;;
59728;SDS011;45588;51.598;5.618;2023-01-28T14:36:17;16.42;;;9.13;;
59728;SDS011;45588;51.598;5.618;2023-01-28T14:38:42;14.85;;;8.57;;
59728;SDS011;45588;51.598;5.618;2023-01-28T14:41:08;16.77;;;9.93;;
59728;SDS011;45588;51.598;5.618;2023-01-28T14:43:34;19.70;;;8.95;;
59728;SDS011;45588;51.598;5.618;2023-01-28T14:48:45;19.48;;;10.02;;
59728;SDS011;45588;51.598;5.618;2023-01-28T14:51:16;20.70;;;11.10;;
59728;SDS011;45588;51.598;5.618;2023-01-28T14:54:00;14.77;;;8.80;;
59728;SDS011;45588;51.598;5.618;2023-01-28T14:56:35;20.73;;;10.27;;
59728;SDS011;45588;51.598;5.618;2023-01-28T14:59:11;20.42;;;10.80;;
59728;SDS011;45588;51.598;5.618;2023-01-28T15:01:42;18.10;;;10.05;;
59728;SDS011;45588;51.598;5.618;2023-01-28T15:04:20;13.60;;;8.00;;
59728;SDS011;45588;51.598;5.618;2023-01-28T15:06:46;18.73;;;10.32;;
59728;SDS011;45588;51.598;5.618;2023-01-28T15:09:11;18.92;;;10.50;;
59728;SDS011;45588;51.598;5.618;2023-01-28T15:11:37;20.98;;;10.00;;
59728;SDS011;45588;51.598;5.618;2023-01-28T15:14:03;24.33;;;19.58;;
59728;SDS011;45588;51.598;5.618;2023-01-28T15:16:29;22.10;;;19.30;;
59728;SDS011;45588;51.598;5.618;2023-01-28T15:18:55;17.20;;;10.15;;
59728;SDS011;45588;51.598;5.618;2023-01-28T15:21:22;19.88;;;10.48;;
59728;SDS011;45588;51.598;5.618;2023-01-28T15:23:51;24.80;;;10.27;;
59728;SDS011;45588;51.598;5.618;2023-01-28T15:26:19;19.33;;;10.18;;
59728;SDS011;45588;51.598;5.618;2023-01-28T15:28:45;20.10;;;9.85;;
59728;SDS011;45588;51.598;5.618;2023-01-28T15:34:00;19.27;;;9.70;;
59728;SDS011;45588;51.598;5.618;2023-01-28T15:36:26;24.40;;;21.65;;
59728;SDS011;45588;51.598;5.618;2023-01-28T15:38:52;21.17;;;10.70;;
59728;SDS011;45588;51.598;5.618;2023-01-28T15:41:18;22.83;;;20.27;;
59728;SDS011;45588;51.598;5.618;2023-01-28T15:43:48;21.25;;;9.75;;
59728;SDS011;45588;51.598;5.618;2023-01-28T15:46:14;23.60;;;20.13;;
59728;SDS011;45588;51.598;5.618;2023-01-28T15:48:46;23.42;;;10.98;;
59728;SDS011;45588;51.598;5.618;2023-01-28T15:51:22;19.95;;;10.93;;
59728;SDS011;45588;51.598;5.618;2023-01-28T15:53:48;17.63;;;10.18;;
59728;SDS011;45588;51.598;5.618;2023-01-28T15:56:14;16.73;;;10.05;;
59728;SDS011;45588;51.598;5.618;2023-01-28T15:58:40;17.35;;;9.80;;
59728;SDS011;45588;51.598;5.618;2023-01-28T16:03:43;19.40;;;10.10;;
59728;SDS011;45588;51.598;5.618;2023-01-28T16:06:16;18.65;;;9.98;;
59728;SDS011;45588;51.598;5.618;2023-01-28T16:08:46;25.30;;;20.98;;
59728;SDS011;45588;51.598;5.618;2023-01-28T16:11:20;18.80;;;9.80;;
59728;SDS011;45588;51.598;5.618;2023-01-28T16:13:45;20.05;;;10.23;;
59728;SDS011;45588;51.598;5.618;2023-01-28T16:16:11;20.52;;;10.55;;
59728;SDS011;45588;51.598;5.618;2023-01-28T16:18:42;24.85;;;10.35;;